• Join FlightAware (Why Join?)
  • Login
  • US Flag 
01:58PM EDT


 

Airport Tracker/Info


-or-


 

Live Flight TrackerFlight Track Log ✈ AAL44 ✈ 08-May-2013 ✈ KJFK - LFPG / CDG

Flight Track Log - Related Links

Times and Time Zones

All times are in EDT time to prevent confusion due to time zone crossing. See the AAL44 flight status page for this flight to view local times or setup timezone preferences in your user account.

Time Position Orientation Groundspeed Altitude Reporting Facility
EDT Latitude Longitude Course Direction KTS MPH feet Rate Location/Type
06:26PM 40.6210 -73.7860 213° Southwest 172 198 400  Level FlightAware
06:27PM 40.6010 -73.8040 214° Southwest 177 204 1,800 2,040 Climbing FlightAware
06:27PM 40.5830 -73.8200 214° Southwest 220 253 2,300 1,620 Climbing FlightAware
06:27PM 40.5680 -73.8250 194° South 229 264 2,900 3,000 Climbing FlightAware
06:28PM 40.5520 -73.8160 157° South 239 275 3,800 3,300 Climbing FlightAware
06:28PM 40.5425 -73.7974 124° Southeast 257 296 4,500 3,420 Climbing FlightAware ADS-B
06:28PM 40.5409 -73.7780 96° East 266 306 5,300 3,720 Climbing FlightAware ADS-B
06:28PM 40.5452 -73.7540 77° East 266 306 6,200 3,480 Climbing FlightAware ADS-B
06:28PM 40.5488 -73.7277 80° East 273 314 7,100 3,180 Climbing FlightAware ADS-B
06:29PM 40.5493 -73.7112 88° East 272 313 7,600 3,420 Climbing FlightAware ADS-B
06:29PM 40.5495 -73.6858 89° East 271 312 8,600 3,420 Climbing FlightAware ADS-B
06:29PM 40.5497 -73.6575 89° East 280 322 9,500 2,820 Climbing FlightAware ADS-B
06:30PM 40.5507 -73.5930 89° East 304 350 11,100 2,100 Climbing FlightAware ADS-B
06:30PM 40.5512 -73.5304 89° East 344 396 11,900 1,800 Climbing FlightAware ADS-B
06:31PM 40.5523 -73.4644 89° East 368 423 13,000 2,700 Climbing FlightAware ADS-B
06:32PM 40.5531 -73.3724 89° East 379 436 15,100 3,000 Climbing FlightAware ADS-B
06:32PM 40.5530 -73.2912 90° East 389 448 16,800 2,640 Climbing FlightAware ADS-B
06:33PM 40.5533 -73.2139 90° East 405 466 18,100 2,460 Climbing FlightAware ADS-B
06:33PM 40.5535 -73.1372 90° East 413 475 19,400 2,580 Climbing FlightAware ADS-B
06:34PM 40.5540 -73.0567 90° East 421 484 20,800 2,460 Climbing FlightAware ADS-B
06:34PM 40.5593 -72.9955 83° East 436 502 21,700 2,220 Climbing FlightAware ADS-B
06:34PM 40.5660 -72.9626 75° East 442 509 22,200 1,440 Climbing FlightAware ADS-B
06:35PM 40.5910 -72.8640 72° East 456 525 23,000 960 Climbing FlightAware
06:35PM 40.5984 -72.8333 72° East 456 525 23,000  Level FlightAware ADS-B
06:36PM 40.6200 -72.7470 72° East 455 524 23,000  Level FlightAware
06:36PM 40.6480 -72.6400 71° East 463 533 23,000 1,320 Level FlightAware
06:37PM 40.6770 -72.5210 72° East 459 528 24,900 2,280 Climbing FlightAware
06:38PM 40.7040 -72.4140 72° East 465 535 26,300 1,980 Climbing FlightAware
06:39PM 40.7371 -72.2787 72° East 469 540 27,800 1,740 Climbing FlightAware ADS-B
06:39PM 40.7610 -72.1810 72° East 474 545 28,800 1,560 Climbing FlightAware
06:40PM 40.7870 -72.0740 72° East 480 552 29,900 1,620 Climbing FlightAware
06:41PM 40.8160 -71.9550 72° East 484 557 31,100 2,100 Climbing FlightAware
06:41PM 40.8450 -71.8400 72° East 469 540 32,900 2,160 Climbing FlightAware
06:42PM 40.8720 -71.7250 73° East 468 539 34,000 1,680 Climbing FlightAware
06:42PM 40.8914 -71.6461 72° East 465 535 34,800 780 Climbing FlightAware ADS-B
06:43PM 40.9220 -71.5176 72° East 465 535 35,000 120 Climbing FlightAware ADS-B
06:44PM 40.9487 -71.4079 72° East 465 535 35,000  Level FlightAware ADS-B
06:45PM 41.0200 -71.2540 58° Northeast 475 547 35,000  Level FlightAware
06:46PM 41.0970 -71.1320 50° Northeast 478 550 35,000  Level FlightAware
06:47PM 41.1560 -71.0380 50° Northeast 479 551 35,000  Level FlightAware
06:47PM 41.2210 -70.9370 49° Northeast 483 556 35,000  Level FlightAware
06:48PM 41.2780 -70.8460 50° Northeast 479 551 35,000  Level FlightAware
06:49PM 41.3270 -70.7680 50° Northeast 484 557 35,000  Level FlightAware
06:49PM 41.4000 -70.6510 50° Northeast 484 557 35,000  Level FlightAware
06:50PM 41.4470 -70.5770 50° Northeast 483 556 35,000  Level FlightAware
06:51PM 41.5050 -70.4840 50° Northeast 484 557 35,000  Level FlightAware
06:52PM 41.5920 -70.3450 50° Northeast 484 557 35,000  Level FlightAware
06:52PM 41.6440 -70.2590 51° Northeast 483 556 35,000  Level FlightAware
06:53PM 41.7220 -70.1300 51° Northeast 486 559 35,000  Level FlightAware
06:54PM 41.7870 -70.0230 51° Northeast 486 559 35,000  Level FlightAware
06:55PM 41.8550 -69.9100 51° Northeast 487 560 35,000  Level FlightAware
06:56PM 41.9140 -69.8130 51° Northeast 487 560 35,000  Level FlightAware
06:56PM 41.9670 -69.7250 51° Northeast 487 560 35,000  Level FlightAware
06:57PM 42.0250 -69.6280 51° Northeast 489 563 35,000  Level FlightAware
06:58PM 42.0960 -69.5090 51° Northeast 490 564 35,000  Level FlightAware
06:58PM 42.1530 -69.4140 51° Northeast 490 564 35,000  Level FlightAware
06:59PM 42.2150 -69.3090 51° Northeast 490 564 35,000  Level FlightAware
07:00PM 42.2800 -69.2000 51° Northeast 491 565 35,000  Level FlightAware
07:00PM 42.3340 -69.1080 52° Northeast 492 566 35,000  Level FlightAware
07:01PM 42.4000 -68.9950 52° Northeast 493 567 35,000  Level FlightAware
07:02PM 42.4750 -68.8690 51° Northeast 494 568 35,000  Level FlightAware
07:03PM 42.5350 -68.7660 52° Northeast 495 570 35,000  Level FlightAware
07:03PM 42.5680 -68.7100 51° Northeast 497 572 35,000  Level FlightAware
07:04PM 42.6280 -68.6090 51° Northeast 497 572 35,000  Level FlightAware
07:05PM 42.6890 -68.5060 51° Northeast 497 572 35,000  Level FlightAware
07:05PM 42.7380 -68.4230 51° Northeast 497 572 35,000  Level FlightAware
07:06PM 42.7880 -68.3400 51° Northeast 497 572 35,000  Level FlightAware
07:07PM 42.8370 -68.2570 51° Northeast 497 572 35,000  Level FlightAware
07:08PM 42.9530 -68.0430 53° Northeast 35,000  Level FlightAware
07:09PM 43.0260 -67.9150 52° Northeast 496 571 35,000  Level FlightAware
07:09PM 43.0770 -67.8270 52° Northeast 496 571 35,000  Level FlightAware
07:10PM 43.1400 -67.7140 53° Northeast 496 571 35,000  Level FlightAware
07:11PM 43.2030 -67.6040 52° Northeast 496 571 35,000  Level FlightAware
07:11PM 43.2600 -67.5020 52° Northeast 496 571 35,000  Level FlightAware
07:12PM 43.3220 -67.3920 52° Northeast 490 564 35,000  Level FlightAware
07:13PM 43.3790 -67.2910 52° Northeast 490 564 35,000  Level FlightAware
07:13PM 43.4400 -67.1810 53° Northeast 489 563 35,000  Level FlightAware
07:14PM 43.4960 -67.0800 53° Northeast 488 562 35,000  Level FlightAware
07:15PM 43.5530 -66.9800 52° Northeast 488 562 35,000  Level FlightAware
07:16PM 43.6210 -66.8710 49° Northeast 494 568 35,000  Level FlightAware
07:16PM 43.6810 -66.7740 49° Northeast 494 568 35,000  Level FlightAware
07:17PM 43.7410 -66.6800 49° Northeast 495 570 35,000  Level FlightAware
07:18PM 43.8070 -66.5740 49° Northeast 495 570 35,000  Level FlightAware
07:18PM 43.8690 -66.4760 49° Northeast 497 572 35,000  Level FlightAware
07:19PM 43.9350 -66.3690 49° Northeast 494 568 35,000  Level FlightAware
07:20PM 43.9960 -66.2720 49° Northeast 493 567 35,000  Level FlightAware
07:20PM 44.0550 -66.1770 49° Northeast 492 566 35,000  Level FlightAware
07:21PM 44.1070 -66.0920 50° Northeast 491 565 35,000  Level FlightAware
07:22PM 44.1750 -65.9820 49° Northeast 485 558 35,000  Level FlightAware
07:22PM 44.2380 -65.8790 49° Northeast 490 564 35,000  Level FlightAware
07:23PM 44.2990 -65.7780 50° Northeast 485 558 35,000  Level FlightAware
07:24PM 44.3570 -65.6830 49° Northeast 484 557 35,000  Level FlightAware
07:25PM 44.4220 -65.5760 50° Northeast 488 562 35,000  Level FlightAware
07:25PM 44.4890 -65.4660 49° Northeast 488 562 35,000  Level FlightAware
07:26PM 44.5550 -65.3570 50° Northeast 486 559 35,000  Level FlightAware
07:27PM 44.6110 -65.2620 50° Northeast 484 557 35,000  Level FlightAware
07:27PM 44.6780 -65.1500 50° Northeast 483 556 35,000  Level FlightAware
07:28PM 44.7340 -65.0550 50° Northeast 481 554 35,000  Level FlightAware
07:29PM 44.7910 -64.9600 50° Northeast 480 552 35,000  Level FlightAware
07:30PM 44.8540 -64.8540 50° Northeast 480 552 35,000  Level FlightAware
07:30PM 44.9090 -64.7590 51° Northeast 480 552 35,000  Level FlightAware
07:31PM 44.9650 -64.6630 50° Northeast 480 552 35,000  Level FlightAware
07:32PM 45.0290 -64.5530 51° Northeast 481 554 35,000  Level FlightAware
07:32PM 45.0860 -64.4560 50° Northeast 482 555 35,000  Level FlightAware
07:33PM 45.1490 -64.3460 51° Northeast 483 556 35,000  Level FlightAware
07:34PM 45.2060 -64.2480 50° Northeast 484 557 35,000  Level FlightAware
07:34PM 45.2620 -64.1500 51° Northeast 484 557 35,000  Level FlightAware
07:35PM 45.3260 -64.0380 51° Northeast 486 559 35,000  Level FlightAware
07:36PM 45.3700 -63.9610 51° Northeast 486 559 35,000  Level FlightAware
07:36PM 45.4220 -63.8680 51° Northeast 486 559 35,000  Level FlightAware
07:37PM 45.4950 -63.7400 51° Northeast 488 562 35,000  Level FlightAware
07:38PM 45.5520 -63.6390 51° Northeast 488 562 35,000  Level FlightAware
07:39PM 45.6270 -63.5040 52° Northeast 489 563 35,000  Level FlightAware
07:39PM 45.6760 -63.4190 50° Northeast 489 563 35,000  Level FlightAware
07:40PM 45.7240 -63.3330 51° Northeast 489 563 35,000  Level FlightAware
07:41PM 45.7850 -63.2260 51° Northeast 489 563 35,000  Level FlightAware
07:42PM 45.8730 -63.0600 53° Northeast 489 563 35,000  Level FlightAware
07:42PM 45.9300 -62.9550 52° Northeast 489 563 35,000  Level FlightAware
07:43PM 45.9770 -62.8670 52° Northeast 489 563 35,000  Level FlightAware
07:44PM 46.0530 -62.7290 52° Northeast 488 562 35,000  Level FlightAware
07:44PM 46.1110 -62.6220 52° Northeast 488 562 35,000  Level FlightAware
07:45PM 46.1660 -62.5200 52° Northeast 488 562 35,000  Level FlightAware
07:46PM 46.2290 -62.4010 53° Northeast 488 562 35,000  Level FlightAware
07:47PM 46.2850 -62.2970 52° Northeast 488 562 35,000  Level FlightAware
07:47PM 46.3440 -62.1840 53° Northeast 489 563 35,000  Level FlightAware
07:48PM 46.4000 -62.0780 53° Northeast 489 563 35,000  Level FlightAware
07:49PM 46.4540 -61.9750 53° Northeast 489 563 35,000  Level FlightAware
07:49PM 46.5180 -61.8530 53° Northeast 490 564 35,000  Level FlightAware
07:50PM 46.5700 -61.7530 53° Northeast 490 564 35,000  Level FlightAware
07:51PM 46.6330 -61.6320 53° Northeast 490 564 35,000  Level FlightAware
07:51PM 46.6880 -61.5260 53° Northeast 490 564 35,000  Level FlightAware
07:52PM 46.7420 -61.4210 53° Northeast 491 565 35,000  Level FlightAware
07:53PM 46.7880 -61.3310 53° Northeast 491 565 35,000  Level FlightAware
07:54PM 46.8560 -61.1960 54° Northeast 492 566 35,000  Level FlightAware
07:54PM 46.9100 -61.0910 53° Northeast 492 566 35,000  Level FlightAware
07:55PM 46.9730 -60.9660 54° Northeast 492 566 35,000  Level FlightAware
07:56PM 47.0250 -60.8620 54° Northeast 492 566 35,000  Level FlightAware
07:56PM 47.0780 -60.7560 54° Northeast 492 566 35,000  Level FlightAware
07:57PM 47.1240 -60.6650 53° Northeast 493 567 35,000  Level FlightAware
07:58PM 47.1930 -60.5260 54° Northeast 493 567 35,000  Level FlightAware
07:58PM 47.2520 -60.4070 54° Northeast 493 567 35,000  Level FlightAware
07:59PM 47.3070 -60.2930 55° Northeast 493 567 35,000  Level FlightAware
08:00PM 47.3590 -60.1880 54° Northeast 493 567 35,000  Level FlightAware
08:01PM 47.4190 -60.0660 54° Northeast 493 567 35,000  Level FlightAware
08:01PM 47.4710 -59.9580 55° Northeast 493 567 35,000  Level FlightAware
08:02PM 47.5170 -59.8650 54° Northeast 493 567 35,000  Level FlightAware
08:03PM 47.5630 -59.7720 54° Northeast 493 567 35,000  Level FlightAware
08:03PM 47.6190 -59.6560 54° Northeast 493 567 35,000  Level FlightAware
08:04PM 47.6830 -59.5190 55° Northeast 490 564 35,000  Level FlightAware
08:05PM 47.7450 -59.3850 55° Northeast 35,000  Level FlightAware
08:05PM 47.7980 -59.2760 54° Northeast 489 563 35,000  Level FlightAware
08:06PM 47.8750 -59.1100 55° Northeast 487 560 35,000  Level FlightAware
08:07PM 47.9270 -59.0000 55° Northeast 487 560 35,000  Level FlightAware
08:08PM 47.9800 -58.8860 55° Northeast 487 560 35,000  Level FlightAware
08:08PM 48.0360 -58.7650 55° Northeast 488 562 35,000  Level FlightAware
08:09PM 48.0930 -58.6410 55° Northeast 488 562 35,000  Level FlightAware
08:10PM 48.1440 -58.5310 55° Northeast 488 562 35,000  Level FlightAware
08:11PM 48.2020 -58.4060 55° Northeast 486 559 35,000  Level FlightAware
08:11PM 48.2530 -58.2930 56° Northeast 486 559 35,000  Level FlightAware
08:12PM 48.3030 -58.1830 56° Northeast 486 559 35,000  Level FlightAware
08:13PM 48.3520 -58.0770 55° Northeast 486 559 35,000  Level FlightAware
08:13PM 48.4080 -57.9510 56° Northeast 486 559 35,000  Level FlightAware
08:14PM 48.4610 -57.8340 56° Northeast 487 560 35,000  Level FlightAware
08:15PM 48.5180 -57.7060 56° Northeast 487 560 35,000  Level FlightAware
08:15PM 48.5670 -57.5960 56° Northeast 488 562 35,000  Level FlightAware
08:16PM 48.6220 -57.4610 58° Northeast 490 564 35,000  Level FlightAware
08:17PM 48.6640 -57.3460 61° Northeast 491 565 35,000  Level FlightAware
08:18PM 48.7090 -57.2220 61° Northeast 491 565 35,000  Level FlightAware
08:18PM 48.7570 -57.0850 62° Northeast 490 564 35,000  Level FlightAware
08:19PM 48.7990 -56.9650 62° Northeast 489 563 35,000  Level FlightAware
08:20PM 48.8410 -56.8430 62° Northeast 488 562 35,000  Level FlightAware
08:20PM 48.8890 -56.7070 62° Northeast 488 562 35,000  Level FlightAware
08:21PM 48.9310 -56.5880 62° Northeast 488 562 35,000  Level FlightAware
08:22PM 48.9790 -56.4490 62° Northeast 487 560 35,000  Level FlightAware
08:22PM 49.0210 -56.3290 62° Northeast 488 562 35,000  Level FlightAware
08:23PM 49.0680 -56.1920 62° Northeast 488 562 35,000  Level FlightAware
08:24PM 49.1100 -56.0700 62° Northeast 489 563 35,000  Level FlightAware
08:25PM 49.1520 -55.9470 62° Northeast 489 563 35,000  Level FlightAware
08:25PM 49.1990 -55.8090 62° Northeast 489 563 35,000  Level FlightAware
08:26PM 49.2390 -55.6900 63° Northeast 489 563 35,000 240 Level FlightAware
08:27PM 49.2870 -55.5490 62° Northeast 487 560 35,400 660 Climbing FlightAware
08:27PM 49.3280 -55.4270 63° Northeast 487 560 36,000 420 Climbing FlightAware
08:28PM 49.3690 -55.3040 63° Northeast 488 562 36,000  Level FlightAware
08:29PM 49.4150 -55.1640 63° Northeast 486 559 36,000  Level FlightAware
08:29PM 49.4560 -55.0420 63° Northeast 485 558 36,000  Level FlightAware
08:30PM 49.4960 -54.9210 63° Northeast 484 557 36,000  Level FlightAware
08:31PM 49.5420 -54.7810 63° Northeast 486 559 36,000  Level FlightAware
08:32PM 49.5820 -54.6590 63° Northeast 487 560 36,000  Level FlightAware
08:32PM 49.6280 -54.5180 63° Northeast 487 560 36,000  Level FlightAware
08:33PM 49.6680 -54.3940 63° Northeast 489 563 36,000  Level FlightAware
08:34PM 49.7120 -54.2560 64° Northeast 488 562 36,000  Level FlightAware
08:34PM 49.7530 -54.1280 64° Northeast 489 563 36,000  Level FlightAware
08:35PM 49.7920 -54.0090 63° Northeast 489 563 36,000  Level FlightAware
08:36PM 49.8380 -53.8640 64° Northeast 489 563 36,000  Level FlightAware
08:36PM 49.8780 -53.7370 64° Northeast 489 563 36,000  Level FlightAware
08:37PM 49.9170 -53.6130 64° Northeast 489 563 36,000  Level FlightAware
08:38PM 49.9570 -53.4870 64° Northeast 487 560 36,000  Level FlightAware
08:38PM 49.9960 -53.3600 64° Northeast 487 560 36,000  Level FlightAware
08:39PM 50.0360 -53.2340 64° Northeast 487 560 36,000  Level FlightAware
08:40PM 50.0790 -53.0920 65° Northeast 485 558 36,000  Level FlightAware
08:41PM 50.1180 -52.9670 64° Northeast 484 557 36,000  Level FlightAware
08:41PM 50.1690 -52.7990 65° Northeast 484 557 36,000  Level FlightAware
08:42PM 50.2130 -52.6560 64° Northeast 483 556 36,000  Level FlightAware
08:43PM 50.2500 -52.5330 65° Northeast 483 556 36,000  Level FlightAware
08:44PM 50.2870 -52.4140 64° Northeast 483 556 36,000  Level FlightAware
08:45PM 50.3440 -52.2220 65° Northeast 482 555 36,000  Level FlightAware
08:45PM 50.3840 -52.0840 66° East 36,000  Level FlightAware
08:46PM 50.4170 -51.9730 65° Northeast 479 551 36,000  Level FlightAware
08:47PM 50.4560 -51.8420 65° Northeast 479 551 36,000  Level FlightAware
08:47PM 50.4880 -51.7350 65° Northeast 479 551 36,000  Level FlightAware
08:48PM 50.5200 -51.6270 65° Northeast 479 551 36,000  Level FlightAware
08:49PM 50.5520 -51.5200 65° Northeast 479 551 36,000  Level FlightAware
08:49PM 50.5830 -51.4120 66° East 479 551 36,000  Level FlightAware
08:50PM 50.6230 -51.2780 65° Northeast 479 551 36,000  Level FlightAware
08:51PM 50.6550 -51.1700 65° Northeast 479 551 36,000  Level FlightAware
08:51PM 50.6870 -51.0620 65° Northeast 479 551 36,000  Level FlightAware
08:52PM 50.7190 -50.9550 65° Northeast 479 551 36,000  Level FlightAware
08:53PM 50.7500 -50.8470 66° East 479 551 36,000  Level FlightAware
08:54PM 50.7900 -50.7120 65° Northeast 479 551 36,000  Level FlightAware
08:54PM 50.8220 -50.6040 65° Northeast 479 551 36,000  Level FlightAware
08:55PM 50.8540 -50.4960 65° Northeast 479 551 36,000  Level FlightAware
08:56PM 50.8860 -50.3870 65° Northeast 479 551 36,000  Level FlightAware
08:56PM 50.9667 -49.9667 65° Northeast 480 552 36,000  Level Gander Center
08:57PM 51.0167 -49.8000 64° Northeast 480 552 36,000  Level Gander Center
08:58PM 51.0333 -49.6000 82° East 490 564 36,000  Level Gander Center
08:59PM 51.0500 -49.4167 82° East 490 564 36,000  Level Gander Center
09:00PM 51.0833 -49.1833 77° East 490 564 36,000  Level Gander Center
09:03PM 51.1371 -48.8215 77° East  Level FlightAware Approximate
09:10PM 51.3374 -47.3935 77° East  Level FlightAware Approximate
09:11PM 51.3646 -47.1885 78° East  Level FlightAware Approximate
09:12PM 51.3914 -46.9832 78° East  Level FlightAware Approximate
09:13PM 51.4160 -46.7772 80° East  Level FlightAware Approximate
09:14PM 51.4393 -46.5706 80° East  Level FlightAware Approximate
09:15PM 51.4623 -46.3638 80° East  Level FlightAware Approximate
09:16PM 51.4849 -46.1568 80° East  Level FlightAware Approximate
09:17PM 51.5071 -45.9496 80° East  Level FlightAware Approximate
09:18PM 51.5290 -45.7422 80° East  Level FlightAware Approximate
09:19PM 51.5505 -45.5347 80° East  Level FlightAware Approximate
09:20PM 51.5716 -45.3269 81° East  Level FlightAware Approximate
09:21PM 51.5924 -45.1189 81° East  Level FlightAware Approximate
09:22PM 51.6128 -44.9108 81° East  Level FlightAware Approximate
09:23PM 51.6329 -44.7024 81° East  Level FlightAware Approximate
09:24PM 51.6525 -44.4939 81° East  Level FlightAware Approximate
09:25PM 51.6718 -44.2852 81° East  Level FlightAware Approximate
09:26PM 51.6908 -44.0763 82° East  Level FlightAware Approximate
09:27PM 51.7093 -43.8672 82° East  Level FlightAware Approximate
09:28PM 51.7281 -43.6581 82° East  Level FlightAware Approximate
09:29PM 51.7468 -43.4489 82° East  Level FlightAware Approximate
09:30PM 51.7651 -43.2396 82° East  Level FlightAware Approximate
09:31PM 51.7831 -43.0300 82° East  Level FlightAware Approximate
09:32PM 51.8007 -42.8203 82° East  Level FlightAware Approximate
09:33PM 51.8179 -42.6105 82° East  Level FlightAware Approximate
09:34PM 51.8347 -42.4005 83° East  Level FlightAware Approximate
09:35PM 51.8512 -42.1903 83° East  Level FlightAware Approximate
09:36PM 51.8673 -41.9799 83° East  Level FlightAware Approximate
09:37PM 51.8830 -41.7695 83° East  Level FlightAware Approximate
09:38PM 51.8984 -41.5588 83° East  Level FlightAware Approximate
09:39PM 51.9133 -41.3481 83° East  Level FlightAware Approximate
09:40PM 51.9280 -41.1372 84° East  Level FlightAware Approximate
09:41PM 51.9422 -40.9261 84° East  Level FlightAware Approximate
09:42PM 51.9560 -40.7150 84° East  Level FlightAware Approximate
09:43PM 51.9695 -40.5037 84° East  Level FlightAware Approximate
09:44PM 51.9826 -40.2922 84° East  Level FlightAware Approximate
09:45PM 51.9953 -40.0796 84° East  Level FlightAware Approximate
09:46PM 52.0052 -39.8666 86° East  Level FlightAware Approximate
09:47PM 52.0133 -39.6533 86° East  Level FlightAware Approximate
09:48PM 52.0210 -39.4399 87° East  Level FlightAware Approximate
09:49PM 52.0283 -39.2264 87° East  Level FlightAware Approximate
09:50PM 52.0352 -39.0129 87° East  Level FlightAware Approximate
09:50PM 52.0000 -40.0000 86° East 515 593 36,000  Level ETMS Enhanced Traffic Management System
09:51PM 52.0418 -38.7993 87° East  Level FlightAware Approximate
09:52PM 52.0479 -38.5857 87° East  Level FlightAware Approximate
09:53PM 52.0537 -38.3719 87° East  Level FlightAware Approximate
09:54PM 52.0591 -38.1582 88° East  Level FlightAware Approximate
09:55PM 52.0640 -37.9444 88° East  Level FlightAware Approximate
09:56PM 52.0894 -36.9794 88° East 515 593 36,000  Level FlightAware Transoceanic
09:57PM 52.0930 -36.7466 89° East 515 593 36,000  Level FlightAware Transoceanic
09:58PM 52.0962 -36.5138 89° East 515 593 36,000  Level FlightAware Transoceanic
09:59PM 52.0990 -36.2810 89° East 515 593 36,000  Level FlightAware Transoceanic
10:00PM 52.1013 -36.0481 89° East 515 593 36,000  Level FlightAware Transoceanic
10:01PM 52.1031 -35.8152 89° East 515 593 36,000  Level FlightAware Transoceanic
10:02PM 52.1045 -35.5823 90° East 515 593 36,000  Level FlightAware Transoceanic
10:03PM 52.1054 -35.3494 90° East 515 593 36,000  Level FlightAware Transoceanic
10:04PM 52.1059 -35.1165 90° East 515 593 36,000  Level FlightAware Transoceanic
10:05PM 52.1059 -34.8835 90° East 515 593 36,000  Level FlightAware Transoceanic
10:06PM 52.1054 -34.6506 90° East 515 593 36,000  Level FlightAware Transoceanic
10:07PM 52.1045 -34.4177 90° East 515 593 36,000  Level FlightAware Transoceanic
10:08PM 52.1031 -34.1848 91° East 515 593 36,000  Level FlightAware Transoceanic
10:09PM 52.1013 -33.9519 91° East 515 593 36,000  Level FlightAware Transoceanic
10:10PM 52.0990 -33.7190 91° East 515 593 36,000  Level FlightAware Transoceanic
10:11PM 52.0962 -33.4862 91° East 515 593 36,000  Level FlightAware Transoceanic
10:12PM 52.0930 -33.2534 91° East 515 593 36,000  Level FlightAware Transoceanic
10:13PM 52.0894 -33.0206 92° East 515 593 36,000  Level FlightAware Transoceanic
10:14PM 52.0852 -32.7879 92° East 515 593 36,000  Level FlightAware Transoceanic
10:15PM 52.0806 -32.5552 92° East 515 593 36,000  Level FlightAware Transoceanic
10:16PM 52.0756 -32.3226 92° East 515 593 36,000  Level FlightAware Transoceanic
10:17PM 52.0701 -32.0900 92° East 515 593 36,000  Level FlightAware Transoceanic
10:18PM 52.0641 -31.8575 92° East 515 593 36,000  Level FlightAware Transoceanic
10:19PM 52.0577 -31.6250 93° East 515 593 36,000  Level FlightAware Transoceanic
10:20PM 52.0508 -31.3926 93° East 515 593 36,000  Level FlightAware Transoceanic
10:21PM 52.0435 -31.1603 93° East 515 593 36,000  Level FlightAware Transoceanic
10:22PM 52.0357 -30.9281 93° East 515 593 36,000  Level FlightAware Transoceanic
10:23PM 52.0275 -30.6959 93° East 515 593 36,000  Level FlightAware Transoceanic
10:24PM 52.0188 -30.4639 94° East 515 593 36,000  Level FlightAware Transoceanic
10:25PM 52.0096 -30.2319 94° East 515 593 36,000  Level FlightAware Transoceanic
10:26PM 52.0008 -30.0187 94° East  Level FlightAware Approximate
10:27PM 51.9916 -29.8055 94° East  Level FlightAware Approximate
10:28PM 51.9891 -29.8236 96° East  Level FlightAware Approximate
10:29PM 51.9756 -29.6100 96° East  Level FlightAware Approximate
10:30PM 51.9617 -29.3966 96° East  Level FlightAware Approximate
10:31PM 51.9474 -29.1834 96° East  Level FlightAware Approximate
10:32PM 51.9328 -28.9702 96° East  Level FlightAware Approximate
10:33PM 51.9177 -28.7573 96° East  Level FlightAware Approximate
10:34PM 51.9023 -28.5444 97° East  Level FlightAware Approximate
10:35PM 51.8865 -28.3317 97° East  Level FlightAware Approximate
10:36PM 51.8703 -28.1192 97° East  Level FlightAware Approximate
10:37PM 51.8537 -27.9068 97° East  Level FlightAware Approximate
10:38PM 51.8367 -27.6946 97° East  Level FlightAware Approximate
10:39PM 51.8194 -27.4825 97° East  Level FlightAware Approximate
10:40PM 51.8031 -27.2703 97° East  Level FlightAware Approximate
10:41PM 51.7868 -27.0582 97° East  Level FlightAware Approximate
10:42PM 51.7701 -26.8462 97° East  Level FlightAware Approximate
10:43PM 51.7530 -26.6344 97° East  Level FlightAware Approximate
10:44PM 51.7355 -26.4228 98° East  Level FlightAware Approximate
10:45PM 51.7176 -26.2113 98° East  Level FlightAware Approximate
10:46PM 51.6992 -26.0000 98° East  Level FlightAware Approximate
10:47PM 51.6804 -25.7889 98° East  Level FlightAware Approximate
10:48PM 51.6612 -25.5780 98° East  Level FlightAware Approximate
10:49PM 51.6416 -25.3673 98° East  Level FlightAware Approximate
10:50PM 51.6216 -25.1567 99° East  Level FlightAware Approximate
10:51PM 51.6013 -24.9464 99° East  Level FlightAware Approximate
10:52PM 51.5803 -24.7363 99° East  Level FlightAware Approximate
10:53PM 51.5589 -24.5264 99° East  Level FlightAware Approximate
10:54PM 51.5371 -24.3167 99° East  Level FlightAware Approximate
10:55PM 51.5150 -24.1072 100° East  Level FlightAware Approximate
10:56PM 51.4925 -23.8979 100° East  Level FlightAware Approximate
10:57PM 51.4696 -23.6888 100° East  Level FlightAware Approximate
10:58PM 51.4463 -23.4800 100° East  Level FlightAware Approximate
10:59PM 51.4227 -23.2713 100° East  Level FlightAware Approximate
11:00PM 51.3987 -23.0629 100° East  Level FlightAware Approximate
11:01PM 51.3743 -22.8547 101° East  Level FlightAware Approximate
11:02PM 51.3496 -22.6467 101° East  Level FlightAware Approximate
11:03PM 51.3245 -22.4389 101° East  Level FlightAware Approximate
11:04PM 51.2990 -22.2313 101° East  Level FlightAware Approximate
11:05PM 51.2732 -22.0240 101° East  Level FlightAware Approximate
11:06PM 51.2470 -21.8170 101° East  Level FlightAware Approximate
11:07PM 51.2204 -21.6101 102° East  Level FlightAware Approximate
11:08PM 51.1935 -21.4035 102° East  Level FlightAware Approximate
11:09PM 51.1662 -21.1972 102° East  Level FlightAware Approximate
11:10PM 51.1385 -20.9911 102° East  Level FlightAware Approximate
11:11PM 51.1105 -20.7852 102° East  Level FlightAware Approximate
11:12PM 51.0821 -20.5796 102° East  Level FlightAware Approximate
11:13PM 51.0534 -20.3743 102° East  Level FlightAware Approximate
11:14PM 51.0243 -20.1692 103° East  Level FlightAware Approximate
11:15PM 50.9988 -19.9635 93° East  Level FlightAware Approximate
11:16PM 50.9919 -19.7537 93° East  Level FlightAware Approximate
11:17PM 50.9846 -19.5440 93° East  Level FlightAware Approximate
11:18PM 50.9770 -19.3344 93° East  Level FlightAware Approximate
11:19PM 50.9689 -19.1248 93° East  Level FlightAware Approximate
11:20PM 50.9605 -18.9153 94° East  Level FlightAware Approximate
11:21PM 50.9517 -18.7059 94° East  Level FlightAware Approximate
11:22PM 50.9426 -18.4965 94° East  Level FlightAware Approximate
11:23PM 50.9330 -18.2873 94° East  Level FlightAware Approximate
11:24PM 50.9231 -18.0781 94° East  Level FlightAware Approximate
11:25PM 50.9128 -17.8691 94° East  Level FlightAware Approximate
11:26PM 50.9022 -17.6601 95° East  Level FlightAware Approximate
11:27PM 50.8912 -17.4512 95° East  Level FlightAware Approximate
11:28PM 50.8797 -17.2424 95° East  Level FlightAware Approximate
11:29PM 50.8680 -17.0338 95° East  Level FlightAware Approximate
11:30PM 50.8558 -16.8252 95° East  Level FlightAware Approximate
11:31PM 50.8433 -16.6167 95° East  Level FlightAware Approximate
11:32PM 50.8304 -16.4084 96° East  Level FlightAware Approximate
11:33PM 50.8172 -16.2002 96° East  Level FlightAware Approximate
11:34PM 50.8035 -15.9921 96° East  Level FlightAware Approximate
11:35PM 50.7895 -15.7841 96° East  Level FlightAware Approximate
11:36PM 50.7752 -15.5762 96° East  Level FlightAware Approximate
11:37PM 50.7604 -15.3685 96° East  Level FlightAware Approximate
11:38PM 50.7453 -15.1609 96° East  Level FlightAware Approximate
11:39PM 50.7297 -14.9535 97° East  Level FlightAware Approximate
11:40PM 50.7134 -14.7462 97° East  Level FlightAware Approximate
11:41PM 50.6967 -14.5392 97° East  Level FlightAware Approximate
11:42PM 50.6796 -14.3322 97° East  Level FlightAware Approximate
11:43PM 50.6622 -14.1254 97° East  Level FlightAware Approximate
11:44PM 50.6444 -13.9188 98° East  Level FlightAware Approximate
11:45PM 50.6263 -13.7123 98° East  Level FlightAware Approximate
11:46PM 50.6077 -13.5061 98° East  Level FlightAware Approximate
11:47PM 50.5888 -13.2999 98° East  Level FlightAware Approximate
11:48PM 50.5696 -13.0939 98° East  Level FlightAware Approximate
11:49PM 50.5500 -12.8881 98° East  Level FlightAware Approximate
11:50PM 50.5302 -12.6825 98° East  Level FlightAware Approximate
11:51PM 50.5111 -12.4767 98° East  Level FlightAware Approximate
11:52PM 50.4916 -12.2711 98° East  Level FlightAware Approximate
11:53PM 50.4717 -12.0657 99° East  Level FlightAware Approximate
11:54PM 50.4515 -11.8605 99° East  Level FlightAware Approximate
11:55PM 50.4309 -11.6554 99° East  Level FlightAware Approximate
11:56PM 50.4100 -11.4505 99° East  Level FlightAware Approximate
11:57PM 50.3887 -11.2458 99° East  Level FlightAware Approximate
11:58PM 50.3671 -11.0413 99° East  Level FlightAware Approximate
11:58PM 50.4880 -9.9830 99° East 517 595 37,000  Level FlightAware
11:58PM 50.4730 -9.8590 101° East 517 595 37,000  Level FlightAware
11:59PM 50.4490 -9.6740 101° East 517 595 37,000  Level FlightAware
12:00AM 50.4280 -9.5020 101° East 517 595 37,000  Level FlightAware
12:01AM 50.4010 -9.3000 102° East 519 597 37,000 -720 Level FlightAware
12:02AM 50.3833 -8.9785 102° East 484 557 35,500 -1,020 Descending FlightAware UK
12:02AM 50.3745 -8.9123 102° East 484 557 35,500 2,640 Level FlightAware UK
12:02AM 50.3510 -8.9160 102° East 518 596 37,000  Climbing FlightAware
12:02AM 50.3657 -8.8461 102° East 484 557 35,500 -4,500 Descending FlightAware UK
12:03AM 50.3570 -8.7799 102° East 484 557 35,500  Level FlightAware UK
12:03AM 50.3481 -8.7138 102° East 482 555 35,500  Level FlightAware UK
12:03AM 50.3391 -8.6477 102° East 482 555 35,500  Level FlightAware UK
12:04AM 50.3301 -8.5816 102° East 482 555 35,500 4,680 Level FlightAware UK
12:04AM 50.3130 -8.6380 102° East 520 598 37,000  Climbing FlightAware
12:04AM 50.3210 -8.5154 102° East 482 555 35,500 -2,580 Descending FlightAware UK
12:04AM 50.3118 -8.4492 102° East 482 555 35,500  Level FlightAware UK
12:05AM 50.3027 -8.3829 102° East 482 555 35,500 2,520 Level FlightAware UK
12:05AM 50.2770 -8.3810 102° East 524 603 37,000  Climbing FlightAware
12:05AM 50.2845 -8.2501 102° East 482 555 35,500 -2,460 Descending FlightAware UK
12:05AM 50.2754 -8.1836 102° East 482 555 35,500  Level FlightAware UK
12:06AM 50.2665 -8.1169 102° East 480 552 35,500  Level FlightAware UK
12:06AM 50.2578 -8.0493 101° East 480 552 35,500 3,600 Level FlightAware UK
12:06AM 50.2370 -8.0860 101° East 526 605 37,000  Climbing FlightAware
12:06AM 50.2464 -7.9598 101° East 482 555 35,500 -2,580 Descending FlightAware UK
12:07AM 50.2379 -7.8924 101° East 484 557 35,500  Level FlightAware UK
12:07AM 50.2291 -7.8245 101° East 486 559 35,500 3,600 Level FlightAware UK
12:07AM 50.2080 -7.8610 101° East 526 605 37,000  Climbing FlightAware
12:07AM 50.2175 -7.7357 101° East 486 559 35,500 -2,580 Descending FlightAware UK
12:08AM 50.2085 -7.6678 102° East 486 559 35,500  Level FlightAware UK
12:08AM 50.1996 -7.6015 102° East 486 559 35,500  Level FlightAware UK
12:08AM 50.1903 -7.5338 102° East 484 557 35,500 3,300 Level FlightAware UK
12:08AM 50.1680 -7.5700 102° East 529 609 37,000  Climbing FlightAware
12:09AM 50.1779 -7.4446 102° East 486 559 35,500 -2,760 Descending FlightAware UK
12:09AM 50.1686 -7.3778 102° East 484 557 35,500  Level FlightAware UK
12:09AM 50.1593 -7.3108 102° East 486 559 35,500  Level FlightAware UK
12:10AM 50.1500 -7.2439 102° East 486 559 35,500 4,680 Level FlightAware UK
12:10AM 50.1310 -7.3060 102° East 529 609 37,000  Climbing FlightAware
12:10AM 50.1409 -7.1769 102° East 486 559 35,500 -2,580 Descending FlightAware UK
12:10AM 50.1317 -7.1100 102° East 484 557 35,500  Level FlightAware UK
12:11AM 50.1223 -7.0431 102° East 484 557 35,500 2,520 Level FlightAware UK
12:11AM 50.0940 -7.0430 102° East 529 609 37,000  Climbing FlightAware
12:11AM 50.1129 -6.9762 102° East 488 562 35,500 -4,740 Descending FlightAware UK
12:11AM 50.1034 -6.9085 102° East 490 564 35,500  Level FlightAware UK
12:11AM 50.0938 -6.8416 103° East 488 562 35,500 3,420 Level FlightAware UK
12:12AM 50.0690 -6.8750 103° East 529 609 37,000  Climbing FlightAware
12:12AM 50.0811 -6.7533 103° East 488 562 35,500 -2,700 Descending FlightAware UK
12:12AM 50.0715 -6.6858 102° East 488 562 35,500 3,720 Level FlightAware UK
12:12AM 50.0480 -6.7290 102° East 529 609 37,000  Climbing FlightAware
12:13AM 50.0589 -6.5971 102° East 488 562 35,500 -2,520 Descending FlightAware UK
12:13AM 50.0494 -6.5306 103° East 488 562 35,500 3,300 Level FlightAware UK
12:13AM 50.0230 -6.5600 103° East 527 606 37,000  Climbing FlightAware
12:13AM 50.0366 -6.4420 103° East 488 562 35,500 -2,760 Descending FlightAware UK
12:14AM 50.0268 -6.3756 103° East 486 559 35,500 3,600 Level FlightAware UK
12:14AM 50.0020 -6.4150 103° East 525 604 37,000  Climbing FlightAware
12:14AM 50.0137 -6.2865 103° East 486 559 35,500 -2,580 Descending FlightAware UK
12:14AM 50.0039 -6.2202 103° East 488 562 35,500 3,900 Level FlightAware UK
12:14AM 49.9790 -6.2660 103° East 525 604 37,000  Climbing FlightAware
12:15AM 49.9910 -6.1318 103° East 486 559 35,500 -2,460 Descending FlightAware UK
12:15AM 49.9811 -6.0655 103° East 484 557 35,500 3,420 Level FlightAware UK
12:15AM 49.9540 -6.1020 103° East 526 605 37,000  Climbing FlightAware
12:15AM 49.9678 -5.9772 103° East 482 555 35,500 -2,700 Descending FlightAware UK
12:16AM 49.9578 -5.9109 103° East 484 557 35,500 3,720 Level FlightAware UK
12:16AM 49.9310 -5.9520 103° East 526 605 37,000  Climbing FlightAware
12:16AM 49.9443 -5.8224 103° East 486 559 35,500 -2,520 Descending FlightAware UK
12:16AM 49.9343 -5.7560 103° East 484 557 35,500 4,080 Level FlightAware UK
12:16AM 49.9090 -5.8080 103° East 527 606 37,000  Climbing FlightAware
12:17AM 49.9209 -5.6674 103° East 484 557 35,500 -2,400 Descending FlightAware UK
12:17AM 49.9109 -5.6008 103° East 484 557 35,500 3,600 Level FlightAware UK
12:17AM 49.8830 -5.6420 103° East 528 608 37,000  Climbing FlightAware
12:17AM 49.8970 -5.5115 103° East 482 555 35,500 -2,520 Descending FlightAware UK
12:18AM 49.8865 -5.4450 104° East 484 557 35,500 4,080 Level FlightAware UK
12:18AM 49.8600 -5.4930 104° East 531 611 37,000  Climbing FlightAware
12:18AM 49.8726 -5.3562 104° East 486 559 35,500 -2,400 Descending FlightAware UK
12:18AM 49.8620 -5.2896 104° East 486 559 35,500 3,600 Level FlightAware UK
12:19AM 49.8330 -5.3280 104° East 532 612 37,000  Climbing FlightAware
12:19AM 49.8480 -5.2008 104° East 482 555 35,500 -2,580 Descending FlightAware UK
12:19AM 49.8377 -5.1341 104° East 484 557 35,500 3,900 Level FlightAware UK
12:19AM 49.8090 -5.1800 104° East 533 613 37,000  Climbing FlightAware
12:20AM 49.8234 -5.0445 104° East 486 559 35,500 -2,460 Descending FlightAware UK
12:20AM 49.8128 -4.9779 104° East 486 559 35,500 4,260 Level FlightAware UK
12:20AM 49.7860 -5.0330 104° East 533 613 37,000  Climbing FlightAware
12:20AM 49.8020 -4.9114 104° East 482 555 35,500 -2,760 Descending FlightAware UK
12:20AM 49.7912 -4.8449 104° East 484 557 35,500 3,000 Level FlightAware UK
12:21AM 49.7590 -4.8690 104° East 532 612 37,000  Climbing FlightAware
12:21AM 49.7733 -4.7341 104° East 488 562 35,500  Descending FlightAware UK
12:21AM 49.7370 -4.7380 104° East 532 612 37,000  Climbing FlightAware
12:21AM 49.7625 -4.6677 104° East 490 564 35,500 -4,740 Descending FlightAware UK
12:22AM 49.7519 -4.6013 104° East 490 564 35,500  Level FlightAware UK
12:22AM 49.7409 -4.5344 104° East 488 562 35,500 4,260 Level FlightAware UK
12:22AM 49.7130 -4.5940 104° East 530 610 37,000  Climbing FlightAware
12:22AM 49.7300 -4.4683 104° East 488 562 35,500 -2,760 Descending FlightAware UK
12:22AM 49.7191 -4.4022 104° East 482 555 35,500 3,600 Level FlightAware UK
12:23AM 49.6880 -4.4460 104° East 531 611 37,000  Climbing FlightAware
12:23AM 49.7045 -4.3149 104° East 482 555 35,500 -2,580 Descending FlightAware UK
12:23AM 49.6933 -4.2480 104° East 484 557 35,500 3,180 Level FlightAware UK
12:23AM 49.6610 -4.2820 104° East 531 611 37,000  Climbing FlightAware
12:24AM 49.6750 -4.1377 104° East 486 559 35,500 -2,400 Descending FlightAware UK
12:24AM 49.6640 -4.0717 104° East 486 559 35,500 4,500 Level FlightAware UK
12:24AM 49.6360 -4.1350 104° East 531 611 37,000  Climbing FlightAware
12:24AM 49.6536 -4.0046 104° East 486 559 35,500 -2,700 Descending FlightAware UK
12:25AM 49.6480 -3.9359 97° East 486 559 35,500 3,720 Level FlightAware UK
12:25AM 49.6180 -3.9950 97° East 535 616 37,000  Climbing FlightAware
12:25AM 49.6417 -3.8450 97° East 484 557 35,500 -2,520 Descending FlightAware UK
12:25AM 49.6372 -3.7763 96° East 484 557 35,500 3,300 Level FlightAware UK
12:25AM 49.6050 -3.8060 96° East 536 617 37,000  Climbing FlightAware
12:26AM 49.6315 -3.6849 96° East 484 557 35,500 -2,760 Descending FlightAware UK
12:26AM 49.6275 -3.6156 95° East 482 555 35,500 3,000 Level FlightAware UK
12:26AM 49.5940 -3.6300 95° East 535 616 37,000  Climbing FlightAware
12:26AM 49.6205 -3.5016 95° East 482 555 35,500 -2,520 Descending FlightAware UK
12:27AM 49.6162 -3.4338 96° East 480 552 35,500 4,080 Level FlightAware UK
12:27AM 49.5840 -3.4770 96° East 536 617 37,000  Climbing FlightAware
12:27AM 49.6103 -3.3418 96° East 480 552 35,500 -2,400 Descending FlightAware UK
12:27AM 49.6058 -3.2732 96° East 480 552 35,500 4,500 Level FlightAware UK
12:27AM 49.5740 -3.3250 96° East 537 618 37,000  Climbing FlightAware
12:28AM 49.6012 -3.2047 96° East 482 555 35,500 -2,580 Descending FlightAware UK
12:28AM 49.5965 -3.1353 96° East 480 552 35,500 3,060 Level FlightAware UK
12:28AM 49.5630 -3.1570 96° East 538 619 37,000  Climbing FlightAware
12:29AM 49.5888 -3.0209 96° East 482 555 35,500 -2,460 Descending FlightAware UK
12:29AM 49.5840 -2.9530 96° East 482 555 35,500 4,500 Level FlightAware UK
12:29AM 49.5520 -3.0050 96° East 540 621 37,000  Climbing FlightAware
12:29AM 49.5790 -2.8835 96° East 484 557 35,500 -2,700 Descending FlightAware UK
12:29AM 49.5741 -2.8146 96° East 484 557 35,500 3,720 Level FlightAware UK
12:30AM 49.5410 -2.8550 96° East 539 620 37,000 4,260 Climbing FlightAware
12:30AM 49.5367 -2.7900 96° East 539 620 37,000 -2,520 Level FlightAware ADS-B
12:30AM 49.5626 -2.6542 96° East 482 555 35,500  Descending FlightAware UK
12:30AM 49.5290 -2.6790 96° East 540 621 37,000 4,500 Climbing FlightAware
12:30AM 49.5253 -2.6340 97° East 539 620 37,000 -3,360 Level FlightAware ADS-B
12:31AM 49.5526 -2.5145 97° East 480 552 35,500 -2,700 Descending FlightAware UK
12:31AM 49.5475 -2.4457 96° East 480 552 35,500  Level FlightAware UK
12:31AM 49.5424 -2.3776 97° East 480 552 35,500 2,880 Level FlightAware UK
12:32AM 49.5068 -2.3845 97° East 542 624 37,000 3,900 Climbing FlightAware ADS-B
12:32AM 49.5041 -2.3473 96° East 542 624 37,000 -3,120 Level FlightAware ADS-B
12:32AM 49.5301 -2.2162 96° East 480 552 35,500  Descending FlightAware UK
12:32AM 49.4974 -2.2586 96° East 542 624 37,000 8,160 Climbing FlightAware ADS-B
12:32AM 49.4953 -2.2311 97° East 543 625 37,000 -3,480 Level FlightAware ADS-B
12:33AM 49.5215 -2.1021 97° East 480 552 35,500  Descending FlightAware UK
12:33AM 49.4877 -2.1315 97° East 544 626 37,000 4,500 Climbing FlightAware ADS-B
12:33AM 49.4838 -2.0818 97° East 545 627 37,000 -3,240 Level FlightAware ADS-B
12:33AM 49.5111 -1.9638 97° East 482 555 35,500  Descending FlightAware UK
12:33AM 49.4749 -1.9674 97° East 545 627 37,000 4,680 Climbing FlightAware ADS-B
12:33AM 49.4733 -1.9483 97° East 545 627 37,000 -4,140 Level FlightAware ADS-B
12:34AM 49.4999 -1.8237 97° East 484 557 35,500  Descending FlightAware UK
12:34AM 49.4641 -1.8302 97° East 545 627 37,000  Climbing FlightAware ADS-B
12:34AM 49.4907 -1.7074 97° East 488 562 35,500  Descending FlightAware UK
12:34AM 49.4574 -1.7446 97° East 544 626 37,000 4,980 Climbing FlightAware ADS-B
12:35AM 49.4536 -1.6979 97° East 544 626 37,000  Level FlightAware ADS-B
12:35AM 49.4479 -1.6268 97° East 543 625 37,000  Level FlightAware ADS-B
12:35AM 49.4442 -1.5819 97° East 542 624 37,000 -3,360 Level FlightAware ADS-B
12:35AM 49.4706 -1.4559 97° East 484 557 35,400  Descending FlightAware UK
12:35AM 49.4405 -1.5355 97° East 541 623 37,000 6,420 Climbing FlightAware ADS-B
12:36AM 49.4347 -1.4648 97° East 542 624 36,900 -4,200 Descending FlightAware ADS-B
12:36AM 49.4608 -1.3406 97° East 484 557 35,200 -3,360 Descending FlightAware UK
12:36AM 49.4550 -1.2718 97° East 486 559 35,000 3,120 Descending FlightAware UK
12:36AM 49.4225 -1.3156 97° East 545 627 36,400 -1,200 Climbing FlightAware ADS-B
12:37AM 49.4473 -1.1788 97° East 488 562 34,500 -1,320 Descending FlightAware UK
12:37AM 49.4150 -1.2287 97° East 547 629 35,900 6,000 Climbing FlightAware ADS-B
12:37AM 49.4120 -1.1932 97° East 550 633 35,700 -4,920 Descending FlightAware ADS-B
12:37AM 49.4373 -1.0628 97° East 484 557 33,700 -1,500 Descending FlightAware UK
12:37AM 49.4043 -1.1000 97° East 553 636 35,100 2,700 Climbing FlightAware ADS-B
12:37AM 49.3988 -1.0355 97° East 553 636 34,700 -4,380 Descending FlightAware ADS-B
12:38AM 49.4231 -0.8980 97° East 474 545 32,500 -1,380 Descending FlightAware UK
12:38AM 49.3938 -0.9787 97° East 556 640 34,200 -2,340 Climbing FlightAware ADS-B
12:38AM 49.4168 -0.8266 97° East 470 541 31,800 -5,460 Descending FlightAware UK
12:38AM 49.4106 -0.7574 98° East 472 543 31,200 1,680 Descending FlightAware UK
12:38AM 49.3777 -0.7909 98° East 565 650 32,500 -2,400 Climbing FlightAware ADS-B
12:39AM 49.4022 -0.6613 98° East 472 543 30,200 -2,580 Descending FlightAware UK
12:39AM 49.3657 -0.6489 98° East 569 655 31,000 -2,340 Climbing FlightAware ADS-B
12:39AM 49.3895 -0.5163 98° East 468 539 28,800 -2,400 Descending FlightAware UK
12:40AM 49.3538 -0.5187 98° East 559 643 29,700 -3,000 Climbing FlightAware ADS-B
12:40AM 49.3783 -0.3981 98° East 464 534 27,300 -5,460 Descending FlightAware UK
12:40AM 49.3716 -0.3266 98° East 462 532 26,700 3,420 Descending FlightAware UK
12:40AM 49.3446 -0.4168 98° East 557 641 28,500 -720 Climbing FlightAware ADS-B
12:40AM 49.3649 -0.2565 98° East 458 527 26,500 -960 Descending FlightAware UK
12:41AM 49.3328 -0.2869 98° East 546 628 28,100  Climbing FlightAware ADS-B
12:41AM 49.3543 -0.1425 98° East 450 518 26,500 -240 Descending FlightAware UK
12:41AM 49.3217 -0.1649 98° East 536 617 28,000  Climbing FlightAware ADS-B
12:41AM 49.3438 -0.0298 98° East 442 509 26,500  Descending FlightAware UK
12:42AM 49.3101 -0.0395 98° East 539 620 28,000  Climbing FlightAware ADS-B
12:42AM 49.3329 0.0842 98° East 452 520 26,500  Descending FlightAware UK
12:42AM 49.2991 0.0783 98° East 544 626 28,000  Climbing FlightAware ADS-B
12:42AM 49.3216 0.1995 98° East 454 522 26,500 -2,760 Descending FlightAware UK
12:43AM 49.3151 0.2676 98° East 454 522 26,500 4,500 Level FlightAware UK
12:43AM 49.2879 0.2106 98° East 546 628 28,000  Climbing FlightAware ADS-B
12:43AM 49.3128 0.3378 98° East 454 522 26,500 -2,700 Descending FlightAware UK
12:43AM 49.3110 0.4080 92° East 452 520 26,500 3,060 Level FlightAware UK
12:44AM 49.2842 0.3790 92° East 548 631 27,900 -1,260 Climbing FlightAware ADS-B
12:44AM 49.3106 0.5020 92° East 450 518 26,000 -1,800 Descending FlightAware UK
12:44AM 49.2838 0.4949 92° East 537 618 27,000 -1,860 Climbing FlightAware ADS-B
12:44AM 49.3103 0.6375 92° East 444 511 24,900 -2,220 Descending FlightAware UK
12:45AM 49.2840 0.6079 92° East 514 592 25,900 -3,000 Climbing FlightAware ADS-B
12:45AM 49.3100 0.7457 92° East 438 504 23,400 -5,280 Descending FlightAware UK
12:45AM 49.3095 0.8077 91° East 424 488 22,500 780 Descending FlightAware UK
12:45AM 49.2836 0.7552 91° East 474 545 23,700 -4,800 Climbing FlightAware ADS-B
12:46AM 49.3087 0.8876 91° East 420 483 20,600 -3,120 Descending FlightAware UK
12:46AM 49.2831 0.8260 91° East 465 535 22,100 -4,200 Climbing FlightAware ADS-B
12:46AM 49.3075 0.9856 91° East 412 474 18,500 -7,740 Descending FlightAware UK
12:46AM 49.3069 1.0415 91° East 404 465 17,200 240 Descending FlightAware UK
12:46AM 49.2819 0.9872 91° East 441 507 18,600 -3,720 Climbing FlightAware ADS-B
12:47AM 49.3063 1.0979 91° East 402 463 16,100 -3,120 Descending FlightAware UK
12:47AM 49.2814 1.0838 91° East 433 498 17,000 -2,340 Climbing FlightAware ADS-B
12:47AM 49.3049 1.2079 91° East 384 442 14,700 -2,760 Descending FlightAware UK
12:47AM 49.2807 1.1735 91° East 401 461 15,600 -3,600 Climbing FlightAware ADS-B
12:48AM 49.3038 1.2916 91° East 368 423 12,900 -3,420 Descending FlightAware UK
12:48AM 49.2800 1.2571 91° East 385 443 13,900 -2,940 Climbing FlightAware ADS-B
12:48AM 49.3028 1.3716 91° East 346 398 11,500 -2,100 Descending FlightAware UK
12:48AM 49.2797 1.2986 91° East 370 426 13,200 -2,580 Climbing FlightAware ADS-B
12:49AM 49.3020 1.4178 91° East 334 384 10,700 -3,720 Descending FlightAware UK
12:49AM 49.2794 1.3572 91° East 358 412 12,100 -3,000 Climbing FlightAware ADS-B
12:49AM 49.3014 1.4629 91° East 326 375 9,800 -1,800 Descending FlightAware UK
12:49AM 49.2787 1.4318 91° East 332 382 11,200 -420 Climbing FlightAware ADS-B
12:49AM 49.3006 1.5339 91° East 296 341 9,600 -420 Descending FlightAware UK
12:50AM 49.2783 1.4974 91° East 319 367 11,000 -240 Climbing FlightAware ADS-B
12:50AM 49.2994 1.6012 91° East 292 336 9,500  Descending FlightAware UK
12:50AM 49.2769 1.5499 91° East 316 364 11,000  Climbing FlightAware ADS-B
12:50AM 49.2969 1.6542 91° East 292 336 9,500  Descending FlightAware UK
12:50AM 49.2739 1.6186 91° East 317 365 11,000  Climbing FlightAware ADS-B
12:51AM 49.2930 1.7214 91° East 294 338 9,500  Descending FlightAware UK
12:51AM 49.2709 1.6888 91° East 321 369 11,000  Climbing FlightAware ADS-B
12:51AM 49.2894 1.7894 91° East 302 348 9,500  Descending FlightAware UK
12:52AM 49.2684 1.7583 91° East 329 379 11,000  Climbing FlightAware ADS-B
12:52AM 49.2865 1.8595 91° East 306 352 9,500  Descending FlightAware UK
12:52AM 49.2659 1.8291 91° East 328 377 11,000  Climbing FlightAware ADS-B
12:52AM 49.2841 1.9291 91° East 304 350 9,500  Descending FlightAware UK
12:53AM 49.2630 1.9029 91° East 330 380 11,000 1,860 Climbing FlightAware ADS-B
12:53AM 49.2603 1.9734 93° East 329 379 11,000  Level FlightAware ADS-B
12:54AM 49.2574 2.0448 94° East 329 379 11,000 -1,860 Level FlightAware ADS-B
12:54AM 49.2748 2.1529 94° East 304 350 9,500  Descending FlightAware UK
12:54AM 49.2560 2.0792 94° East 328 377 11,000  Climbing FlightAware ADS-B
12:54AM 49.2717 2.2074 94° East 304 350 9,500  Descending FlightAware UK
12:54AM 49.2522 2.1714 94° East 325 374 11,000  Climbing FlightAware ADS-B
12:55AM 49.2700 2.2795 94° East 302 348 9,500  Descending FlightAware UK
12:55AM 49.2495 2.2393 94° East 297 342 11,000 2,040 Climbing FlightAware ADS-B
12:56AM 49.2467 2.3045 94° East 306 352 11,000 -120 Level FlightAware ADS-B
12:56AM 49.2438 2.3704 94° East 304 350 10,900 -360 Descending FlightAware ADS-B
12:56AM 49.2424 2.4010 94° East 301 346 10,700 -1,260 Descending FlightAware ADS-B
12:57AM 49.2390 2.4646 95° East 300 345 10,000 -1,440 Descending FlightAware ADS-B
12:57AM 49.2368 2.5104 94° East 299 344 9,600 -1,320 Descending FlightAware ADS-B
12:57AM 49.2354 2.5440 94° East 297 342 9,200 -1,320 Descending FlightAware ADS-B
12:58AM 49.2339 2.5773 94° East 296 341 8,900 -1,140 Descending FlightAware ADS-B
12:58AM 49.2323 2.6094 94° East 295 339 8,600 -1,380 Descending FlightAware ADS-B
12:58AM 49.2308 2.6417 94° East 294 338 8,200 -1,440 Descending FlightAware ADS-B
12:58AM 49.2294 2.6732 94° East 293 337 7,900 -1,200 Descending FlightAware ADS-B
12:59AM 49.2279 2.7042 94° East 293 337 7,600 -1,140 Descending FlightAware ADS-B
12:59AM 49.2247 2.7712 94° East 292 336 7,000 -720 Descending FlightAware ADS-B
01:00AM 49.2231 2.8082 94° East 287 330 7,000  Level FlightAware ADS-B
01:00AM 49.2217 2.8400 94° East 290 334 7,000  Level FlightAware ADS-B
01:00AM 49.2380 2.9169 72° East 288 331 7,000  Level FlightAware ADS-B
01:00AM 49.2366 2.9431 95° East 287 330 7,000  Level FlightAware ADS-B
01:01AM 49.2349 2.9733 95° East 286 329 7,000  Level FlightAware ADS-B
01:01AM 49.2332 3.0048 95° East 284 327 7,000  Level FlightAware ADS-B
01:01AM 49.2323 3.0186 96° East 284 327 7,000  Level FlightAware ADS-B
01:01AM 49.2308 3.0472 95° East 285 328 7,000  Level FlightAware ADS-B
01:01AM 49.2299 3.0554 100° East 282 325 7,000  Level FlightAware ADS-B
01:01AM 49.2289 3.0619 103° East 279 321 7,000  Level FlightAware ADS-B
01:01AM 49.2268 3.0692 114° Southeast 274 315 7,000  Level FlightAware ADS-B
01:02AM 49.2246 3.0755 118° Southeast 270 311 7,000 -780 Level FlightAware ADS-B
01:02AM 49.2217 3.0813 127° Southeast 264 304 6,900 -900 Descending FlightAware ADS-B
01:02AM 49.2189 3.0858 133° Southeast 261 300 6,900 -900 Level FlightAware ADS-B
01:02AM 49.2153 3.0906 139° Southeast 257 296 6,800 -1,500 Descending FlightAware ADS-B
01:02AM 49.2119 3.0943 144° Southeast 255 293 6,700 -1,200 Descending FlightAware ADS-B
01:02AM 49.1959 3.1117 145° Southeast 252 290 6,400 -960 Descending FlightAware ADS-B
01:02AM 49.1814 3.1275 145° Southeast 238 274 6,200 -1,020 Descending FlightAware ADS-B
01:03AM 49.1681 3.1421 144° Southeast 225 259 5,900 -1,380 Descending FlightAware ADS-B
01:03AM 49.1554 3.1560 144° Southeast 220 253 5,500 -1,860 Descending FlightAware ADS-B
01:03AM 49.1468 3.1654 144° Southeast 221 254 5,100 -1,740 Descending FlightAware ADS-B
01:03AM 49.1317 3.1828 143° Southeast 224 258 4,700 -1,320 Descending FlightAware ADS-B
01:03AM 49.1281 3.1860 149° Southeast 222 255 4,600 -840 Descending FlightAware ADS-B
01:04AM 49.1242 3.1886 156° South 219 252 4,500 -1,740 Descending FlightAware ADS-B
01:04AM 49.1141 3.1905 173° South 212 244 4,200 -3,000 Descending FlightAware ADS-B
01:04AM 49.1101 3.1893 191° South 209 241 4,100 -900 Descending FlightAware ADS-B
01:04AM 49.1073 3.1877 200° South 208 239 4,100 -900 Level FlightAware ADS-B
01:04AM 49.1044 3.1854 208° Southwest 210 242 4,000 -900 Descending FlightAware ADS-B
01:04AM 49.1015 3.1821 217° Southwest 210 242 4,000  Level FlightAware ADS-B
01:04AM 49.0988 3.1778 226° Southwest 212 244 4,000  Level FlightAware ADS-B
01:04AM 49.0965 3.1730 234° Southwest 212 244 4,000  Level FlightAware ADS-B
01:04AM 49.0921 3.1617 239° Southwest 212 244 4,000  Level FlightAware ADS-B
01:04AM 49.0847 3.1416 241° Southwest 209 241 4,000  Level FlightAware ADS-B
01:05AM 49.0768 3.1200 241° Southwest 211 243 4,000  Level FlightAware ADS-B
01:05AM 49.0692 3.1002 240° Southwest 211 243 4,000  Level FlightAware ADS-B
01:05AM 49.0615 3.0800 240° Southwest 211 243 4,000  Level FlightAware ADS-B
01:05AM 49.0541 3.0609 239° Southwest 213 245 4,000  Level FlightAware ADS-B
01:06AM 49.0462 3.0408 239° Southwest 213 245 4,000  Level FlightAware ADS-B
01:06AM 49.0426 3.0315 239° Southwest 212 244 4,000  Level FlightAware ADS-B
01:06AM 49.0332 3.0070 240° Southwest 209 241 4,000  Level FlightAware ADS-B
01:06AM 49.0268 2.9898 240° Southwest 210 242 4,000  Level FlightAware ADS-B
01:06AM 49.0244 2.9833 241° Southwest 212 244 4,000  Level FlightAware ADS-B
01:06AM 49.0230 2.9782 247° West 212 244 4,000  Level FlightAware ADS-B
01:07AM 49.0220 2.9732 253° West 213 245 4,000  Level FlightAware ADS-B
01:07AM 49.0205 2.9639 256° West 212 244 4,000  Level FlightAware ADS-B
01:07AM 49.0193 2.9533 260° West 213 245 4,000  Level FlightAware ADS-B
01:07AM 49.0182 2.9375 264° West 213 245 4,000  Level FlightAware ADS-B
01:07AM 49.0176 2.9229 266° West 215 247 4,000  Level FlightAware ADS-B
01:07AM 49.0164 2.8999 265° West 218 251 4,000  Level FlightAware ADS-B
01:08AM 49.0153 2.8770 266° West 217 250 4,000  Level FlightAware ADS-B
01:08AM 49.0141 2.8537 266° West 215 247 4,000 -240 Level FlightAware ADS-B
01:08AM 49.0131 2.8340 266° West 207 238 3,900 -840 Descending FlightAware ADS-B
01:08AM 49.0117 2.8113 265° West 205 236 3,600 -1,200 Descending FlightAware ADS-B
01:09AM 49.0107 2.7900 266° West 200 230 3,300 -1,200 Descending FlightAware ADS-B
01:09AM 49.0095 2.7696 265° West 191 220 3,000 -1,080 Descending FlightAware ADS-B
01:09AM 49.0086 2.7529 265° West 184 212 2,800 -1,080 Descending FlightAware ADS-B
01:09AM 49.0076 2.7329 266° West 176 203 2,500 -1,140 Descending FlightAware ADS-B
01:10AM 49.0064 2.7122 265° West 163 188 2,200 -960 Descending FlightAware ADS-B
01:10AM 49.0054 2.6958 265° West 152 175 2,000 -840 Descending FlightAware ADS-B
01:10AM 49.0042 2.6738 265° West 138 159 1,700 -660 Descending FlightAware ADS-B
01:11AM 49.0033 2.6568 265° West 132 152 1,500 -660 Descending FlightAware ADS-B
01:11AM 49.0023 2.6395 265° West 134 154 1,300 -960 Descending FlightAware ADS-B
01:11AM 49.0014 2.6252 265° West 135 155 1,100 -720 Descending FlightAware ADS-B
01:11AM 49.0009 2.6163 265° West 133 153 1,000 -780 Descending FlightAware ADS-B
01:12AM 49.0000 2.6025 264° West 131 151 800 -900 Descending FlightAware ADS-B
01:12AM 48.9993 2.5905 265° West 129 148 600 -720 Descending FlightAware ADS-B
01:12AM 48.9988 2.5801 266° West 132 152 500 -540 Descending FlightAware ADS-B